sensor_id;sensor_type;location;lat;lon;timestamp;P1;durP1;ratioP1;P2;durP2;ratioP2
32864;SDS011;19219;44.500;11.188;2023-04-24T00:02:05;8.55;;;4.20;;
32864;SDS011;19219;44.500;11.188;2023-04-24T00:04:31;5.68;;;4.53;;
32864;SDS011;19219;44.500;11.188;2023-04-24T00:06:57;10.38;;;4.45;;
32864;SDS011;19219;44.500;11.188;2023-04-24T00:09:24;7.93;;;4.00;;
32864;SDS011;19219;44.500;11.188;2023-04-24T00:11:51;6.85;;;4.40;;
32864;SDS011;19219;44.500;11.188;2023-04-24T00:14:17;11.23;;;4.50;;
32864;SDS011;19219;44.500;11.188;2023-04-24T00:16:43;5.30;;;4.07;;
32864;SDS011;19219;44.500;11.188;2023-04-24T00:19:08;9.05;;;4.10;;
32864;SDS011;19219;44.500;11.188;2023-04-24T00:21:34;9.98;;;4.18;;
32864;SDS011;19219;44.500;11.188;2023-04-24T00:24:00;4.70;;;4.25;;
32864;SDS011;19219;44.500;11.188;2023-04-24T00:26:25;4.57;;;4.10;;
32864;SDS011;19219;44.500;11.188;2023-04-24T00:28:51;12.75;;;4.60;;
32864;SDS011;19219;44.500;11.188;2023-04-24T00:31:16;9.10;;;3.88;;
32864;SDS011;19219;44.500;11.188;2023-04-24T00:33:42;11.05;;;4.40;;
32864;SDS011;19219;44.500;11.188;2023-04-24T00:36:08;6.88;;;4.28;;
32864;SDS011;19219;44.500;11.188;2023-04-24T00:38:34;9.52;;;4.30;;
32864;SDS011;19219;44.500;11.188;2023-04-24T00:41:00;5.47;;;3.65;;
32864;SDS011;19219;44.500;11.188;2023-04-24T00:43:25;5.30;;;3.45;;
32864;SDS011;19219;44.500;11.188;2023-04-24T00:45:51;5.20;;;4.63;;
32864;SDS011;19219;44.500;11.188;2023-04-24T00:48:17;5.60;;;3.90;;
32864;SDS011;19219;44.500;11.188;2023-04-24T00:50:43;7.28;;;4.05;;
32864;SDS011;19219;44.500;11.188;2023-04-24T00:53:09;6.03;;;4.22;;
32864;SDS011;19219;44.500;11.188;2023-04-24T00:55:35;6.68;;;4.25;;
32864;SDS011;19219;44.500;11.188;2023-04-24T00:58:02;7.72;;;3.63;;
32864;SDS011;19219;44.500;11.188;2023-04-24T01:00:28;7.72;;;4.53;;
32864;SDS011;19219;44.500;11.188;2023-04-24T01:02:55;5.88;;;3.92;;
32864;SDS011;19219;44.500;11.188;2023-04-24T01:05:22;8.70;;;4.22;;
32864;SDS011;19219;44.500;11.188;2023-04-24T01:07:48;6.80;;;4.70;;
32864;SDS011;19219;44.500;11.188;2023-04-24T01:10:14;4.28;;;3.75;;
32864;SDS011;19219;44.500;11.188;2023-04-24T01:12:40;5.63;;;3.88;;
32864;SDS011;19219;44.500;11.188;2023-04-24T01:15:06;6.93;;;4.22;;
32864;SDS011;19219;44.500;11.188;2023-04-24T01:17:33;6.38;;;4.50;;
32864;SDS011;19219;44.500;11.188;2023-04-24T01:19:59;7.55;;;4.07;;
32864;SDS011;19219;44.500;11.188;2023-04-24T01:22:26;12.95;;;4.15;;
32864;SDS011;19219;44.500;11.188;2023-04-24T01:24:52;5.65;;;3.58;;
32864;SDS011;19219;44.500;11.188;2023-04-24T01:27:18;6.60;;;4.38;;
32864;SDS011;19219;44.500;11.188;2023-04-24T01:29:45;8.80;;;3.83;;
32864;SDS011;19219;44.500;11.188;2023-04-24T01:32:12;5.75;;;3.92;;
32864;SDS011;19219;44.500;11.188;2023-04-24T01:34:38;4.50;;;3.58;;
32864;SDS011;19219;44.500;11.188;2023-04-24T01:37:04;9.15;;;4.00;;
32864;SDS011;19219;44.500;11.188;2023-04-24T01:39:30;5.63;;;4.30;;
32864;SDS011;19219;44.500;11.188;2023-04-24T01:41:56;7.18;;;4.00;;
32864;SDS011;19219;44.500;11.188;2023-04-24T01:44:22;4.82;;;3.70;;
32864;SDS011;19219;44.500;11.188;2023-04-24T01:46:48;5.63;;;3.78;;
32864;SDS011;19219;44.500;11.188;2023-04-24T01:49:14;9.85;;;4.20;;
32864;SDS011;19219;44.500;11.188;2023-04-24T01:51:40;5.18;;;4.40;;
32864;SDS011;19219;44.500;11.188;2023-04-24T01:54:06;6.35;;;3.72;;
32864;SDS011;19219;44.500;11.188;2023-04-24T01:56:33;6.63;;;3.90;;
32864;SDS011;19219;44.500;11.188;2023-04-24T01:59:00;4.13;;;3.08;;
32864;SDS011;19219;44.500;11.188;2023-04-24T02:01:32;6.10;;;3.88;;
32864;SDS011;19219;44.500;11.188;2023-04-24T02:04:02;7.45;;;3.17;;
32864;SDS011;19219;44.500;11.188;2023-04-24T02:06:28;6.60;;;3.97;;
32864;SDS011;19219;44.500;11.188;2023-04-24T02:08:57;9.02;;;3.90;;
32864;SDS011;19219;44.500;11.188;2023-04-24T02:11:23;8.80;;;3.78;;
32864;SDS011;19219;44.500;11.188;2023-04-24T02:13:49;6.80;;;3.60;;
32864;SDS011;19219;44.500;11.188;2023-04-24T02:16:16;4.80;;;3.67;;
32864;SDS011;19219;44.500;11.188;2023-04-24T02:18:42;4.63;;;3.97;;
32864;SDS011;19219;44.500;11.188;2023-04-24T02:21:08;7.05;;;3.42;;
32864;SDS011;19219;44.500;11.188;2023-04-24T02:23:34;6.28;;;3.63;;
32864;SDS011;19219;44.500;11.188;2023-04-24T02:26:00;7.57;;;3.33;;
32864;SDS011;19219;44.500;11.188;2023-04-24T02:28:25;5.43;;;3.45;;
32864;SDS011;19219;44.500;11.188;2023-04-24T02:30:51;10.13;;;4.30;;
32864;SDS011;19219;44.500;11.188;2023-04-24T02:33:17;7.95;;;3.70;;
32864;SDS011;19219;44.500;11.188;2023-04-24T02:35:42;6.95;;;4.05;;
32864;SDS011;19219;44.500;11.188;2023-04-24T02:38:08;6.30;;;3.75;;
32864;SDS011;19219;44.500;11.188;2023-04-24T02:40:34;9.40;;;5.85;;
32864;SDS011;19219;44.500;11.188;2023-04-24T02:42:59;9.50;;;4.95;;
32864;SDS011;19219;44.500;11.188;2023-04-24T02:45:25;5.63;;;3.38;;
32864;SDS011;19219;44.500;11.188;2023-04-24T02:47:51;5.00;;;3.33;;
32864;SDS011;19219;44.500;11.188;2023-04-24T02:50:16;7.65;;;3.60;;
32864;SDS011;19219;44.500;11.188;2023-04-24T02:52:42;7.78;;;4.20;;
32864;SDS011;19219;44.500;11.188;2023-04-24T02:55:08;7.07;;;4.45;;
32864;SDS011;19219;44.500;11.188;2023-04-24T02:57:33;7.55;;;4.38;;
32864;SDS011;19219;44.500;11.188;2023-04-24T02:59:59;7.70;;;3.75;;
32864;SDS011;19219;44.500;11.188;2023-04-24T03:02:25;5.97;;;3.63;;
32864;SDS011;19219;44.500;11.188;2023-04-24T03:04:50;6.53;;;4.70;;
32864;SDS011;19219;44.500;11.188;2023-04-24T03:07:16;7.95;;;5.60;;
32864;SDS011;19219;44.500;11.188;2023-04-24T03:09:42;8.93;;;5.15;;
32864;SDS011;19219;44.500;11.188;2023-04-24T03:12:08;6.55;;;4.70;;
32864;SDS011;19219;44.500;11.188;2023-04-24T03:14:33;9.02;;;5.10;;
32864;SDS011;19219;44.500;11.188;2023-04-24T03:16:59;10.88;;;5.25;;
32864;SDS011;19219;44.500;11.188;2023-04-24T03:19:25;8.18;;;5.78;;
32864;SDS011;19219;44.500;11.188;2023-04-24T03:21:51;9.60;;;5.35;;
32864;SDS011;19219;44.500;11.188;2023-04-24T03:24:16;9.65;;;6.20;;
32864;SDS011;19219;44.500;11.188;2023-04-24T03:26:42;7.35;;;5.32;;
32864;SDS011;19219;44.500;11.188;2023-04-24T03:29:07;9.35;;;6.50;;
32864;SDS011;19219;44.500;11.188;2023-04-24T03:31:33;8.07;;;6.20;;
32864;SDS011;19219;44.500;11.188;2023-04-24T03:33:59;9.68;;;6.18;;
32864;SDS011;19219;44.500;11.188;2023-04-24T03:36:24;10.65;;;7.78;;
32864;SDS011;19219;44.500;11.188;2023-04-24T03:38:51;9.82;;;7.40;;
32864;SDS011;19219;44.500;11.188;2023-04-24T03:41:16;9.77;;;7.00;;
32864;SDS011;19219;44.500;11.188;2023-04-24T03:43:42;12.52;;;7.00;;
32864;SDS011;19219;44.500;11.188;2023-04-24T03:46:08;10.18;;;6.95;;
32864;SDS011;19219;44.500;11.188;2023-04-24T03:48:34;12.43;;;7.03;;
32864;SDS011;19219;44.500;11.188;2023-04-24T03:51:00;9.00;;;6.97;;
32864;SDS011;19219;44.500;11.188;2023-04-24T03:53:26;8.02;;;6.55;;
32864;SDS011;19219;44.500;11.188;2023-04-24T03:55:52;9.88;;;7.45;;
32864;SDS011;19219;44.500;11.188;2023-04-24T03:58:18;17.25;;;7.40;;
32864;SDS011;19219;44.500;11.188;2023-04-24T04:00:44;13.52;;;8.10;;
32864;SDS011;19219;44.500;11.188;2023-04-24T04:03:13;14.02;;;7.60;;
32864;SDS011;19219;44.500;11.188;2023-04-24T04:05:39;10.40;;;7.80;;
32864;SDS011;19219;44.500;11.188;2023-04-24T04:08:05;9.63;;;7.85;;
32864;SDS011;19219;44.500;11.188;2023-04-24T04:10:31;7.78;;;6.78;;
32864;SDS011;19219;44.500;11.188;2023-04-24T04:12:56;12.95;;;7.50;;
32864;SDS011;19219;44.500;11.188;2023-04-24T04:15:22;11.07;;;7.78;;
32864;SDS011;19219;44.500;11.188;2023-04-24T04:17:47;16.52;;;9.57;;
32864;SDS011;19219;44.500;11.188;2023-04-24T04:20:14;9.85;;;6.68;;
32864;SDS011;19219;44.500;11.188;2023-04-24T04:22:40;10.05;;;6.88;;
32864;SDS011;19219;44.500;11.188;2023-04-24T04:25:06;14.25;;;7.10;;
32864;SDS011;19219;44.500;11.188;2023-04-24T04:27:32;8.25;;;6.95;;
32864;SDS011;19219;44.500;11.188;2023-04-24T04:29:59;11.85;;;6.40;;
32864;SDS011;19219;44.500;11.188;2023-04-24T04:32:29;11.05;;;6.65;;
32864;SDS011;19219;44.500;11.188;2023-04-24T04:34:58;11.57;;;7.13;;
32864;SDS011;19219;44.500;11.188;2023-04-24T04:37:28;9.32;;;7.50;;
32864;SDS011;19219;44.500;11.188;2023-04-24T04:39:58;14.43;;;6.97;;
32864;SDS011;19219;44.500;11.188;2023-04-24T04:42:24;9.60;;;7.55;;
32864;SDS011;19219;44.500;11.188;2023-04-24T04:44:53;10.30;;;7.80;;
32864;SDS011;19219;44.500;11.188;2023-04-24T04:47:20;14.73;;;7.88;;
32864;SDS011;19219;44.500;11.188;2023-04-24T04:49:50;11.77;;;8.57;;
32864;SDS011;19219;44.500;11.188;2023-04-24T04:52:17;13.15;;;8.88;;
32864;SDS011;19219;44.500;11.188;2023-04-24T04:54:43;12.45;;;9.40;;
32864;SDS011;19219;44.500;11.188;2023-04-24T04:57:08;10.45;;;7.68;;
32864;SDS011;19219;44.500;11.188;2023-04-24T04:59:35;11.43;;;8.77;;
32864;SDS011;19219;44.500;11.188;2023-04-24T05:02:00;15.80;;;7.68;;
32864;SDS011;19219;44.500;11.188;2023-04-24T05:04:26;8.57;;;7.45;;
32864;SDS011;19219;44.500;11.188;2023-04-24T05:06:52;17.50;;;8.25;;
32864;SDS011;19219;44.500;11.188;2023-04-24T05:09:18;20.83;;;8.73;;
32864;SDS011;19219;44.500;11.188;2023-04-24T05:11:44;13.63;;;8.05;;
32864;SDS011;19219;44.500;11.188;2023-04-24T05:14:09;12.88;;;8.32;;
32864;SDS011;19219;44.500;11.188;2023-04-24T05:16:37;13.77;;;8.07;;
32864;SDS011;19219;44.500;11.188;2023-04-24T05:19:03;12.30;;;8.90;;
32864;SDS011;19219;44.500;11.188;2023-04-24T05:21:29;16.67;;;9.85;;
32864;SDS011;19219;44.500;11.188;2023-04-24T05:23:54;18.65;;;12.15;;
32864;SDS011;19219;44.500;11.188;2023-04-24T05:26:20;16.00;;;10.82;;
32864;SDS011;19219;44.500;11.188;2023-04-24T05:28:46;18.25;;;11.32;;
32864;SDS011;19219;44.500;11.188;2023-04-24T05:31:11;18.38;;;11.73;;
32864;SDS011;19219;44.500;11.188;2023-04-24T05:33:37;19.38;;;12.75;;
32864;SDS011;19219;44.500;11.188;2023-04-24T05:36:03;21.77;;;12.52;;
32864;SDS011;19219;44.500;11.188;2023-04-24T05:38:30;17.67;;;11.75;;
32864;SDS011;19219;44.500;11.188;2023-04-24T05:40:56;22.58;;;12.88;;
32864;SDS011;19219;44.500;11.188;2023-04-24T05:43:21;22.35;;;13.38;;
32864;SDS011;19219;44.500;11.188;2023-04-24T05:45:47;22.50;;;15.00;;
32864;SDS011;19219;44.500;11.188;2023-04-24T05:48:13;21.75;;;13.90;;
32864;SDS011;19219;44.500;11.188;2023-04-24T05:50:38;21.92;;;14.38;;
32864;SDS011;19219;44.500;11.188;2023-04-24T05:53:04;26.30;;;17.77;;
32864;SDS011;19219;44.500;11.188;2023-04-24T05:55:32;30.33;;;19.13;;
32864;SDS011;19219;44.500;11.188;2023-04-24T05:57:57;21.75;;;16.35;;
32864;SDS011;19219;44.500;11.188;2023-04-24T06:00:23;22.95;;;14.88;;
32864;SDS011;19219;44.500;11.188;2023-04-24T06:02:49;41.85;;;27.98;;
32864;SDS011;19219;44.500;11.188;2023-04-24T06:05:16;26.45;;;17.80;;
32864;SDS011;19219;44.500;11.188;2023-04-24T06:07:42;24.48;;;17.08;;
32864;SDS011;19219;44.500;11.188;2023-04-24T06:10:08;22.15;;;15.52;;
32864;SDS011;19219;44.500;11.188;2023-04-24T06:12:34;23.58;;;15.90;;
32864;SDS011;19219;44.500;11.188;2023-04-24T06:15:01;21.05;;;15.27;;
32864;SDS011;19219;44.500;11.188;2023-04-24T06:17:27;27.58;;;16.73;;
32864;SDS011;19219;44.500;11.188;2023-04-24T06:19:53;25.85;;;15.93;;
32864;SDS011;19219;44.500;11.188;2023-04-24T06:22:18;23.25;;;14.82;;
32864;SDS011;19219;44.500;11.188;2023-04-24T06:24:44;23.67;;;16.30;;
32864;SDS011;19219;44.500;11.188;2023-04-24T06:27:10;41.70;;;26.05;;
32864;SDS011;19219;44.500;11.188;2023-04-24T06:29:35;27.08;;;15.65;;
32864;SDS011;19219;44.500;11.188;2023-04-24T06:32:02;25.20;;;14.55;;
32864;SDS011;19219;44.500;11.188;2023-04-24T06:34:27;21.90;;;14.60;;
32864;SDS011;19219;44.500;11.188;2023-04-24T06:36:53;19.27;;;13.90;;
32864;SDS011;19219;44.500;11.188;2023-04-24T06:39:20;24.02;;;14.10;;
32864;SDS011;19219;44.500;11.188;2023-04-24T06:41:45;19.35;;;13.25;;
32864;SDS011;19219;44.500;11.188;2023-04-24T06:44:11;16.58;;;12.82;;
32864;SDS011;19219;44.500;11.188;2023-04-24T06:46:37;23.98;;;14.00;;
32864;SDS011;19219;44.500;11.188;2023-04-24T06:49:02;18.98;;;11.52;;
32864;SDS011;19219;44.500;11.188;2023-04-24T06:51:28;13.48;;;10.52;;
32864;SDS011;19219;44.500;11.188;2023-04-24T06:53:54;15.32;;;10.55;;
32864;SDS011;19219;44.500;11.188;2023-04-24T06:56:21;17.05;;;9.20;;
32864;SDS011;19219;44.500;11.188;2023-04-24T06:58:47;15.63;;;11.10;;
32864;SDS011;19219;44.500;11.188;2023-04-24T07:01:13;12.35;;;8.40;;
32864;SDS011;19219;44.500;11.188;2023-04-24T07:03:39;11.60;;;8.35;;
32864;SDS011;19219;44.500;11.188;2023-04-24T07:06:05;12.45;;;8.82;;
32864;SDS011;19219;44.500;11.188;2023-04-24T07:08:31;11.68;;;9.27;;
32864;SDS011;19219;44.500;11.188;2023-04-24T07:10:58;11.35;;;8.50;;
32864;SDS011;19219;44.500;11.188;2023-04-24T07:13:24;16.73;;;8.98;;
32864;SDS011;19219;44.500;11.188;2023-04-24T07:15:49;11.93;;;6.97;;
32864;SDS011;19219;44.500;11.188;2023-04-24T07:18:17;9.70;;;7.30;;
32864;SDS011;19219;44.500;11.188;2023-04-24T07:20:43;14.02;;;7.15;;
32864;SDS011;19219;44.500;11.188;2023-04-24T07:23:09;10.13;;;7.15;;
32864;SDS011;19219;44.500;11.188;2023-04-24T07:25:35;12.52;;;8.18;;
32864;SDS011;19219;44.500;11.188;2023-04-24T07:28:00;9.63;;;6.60;;
32864;SDS011;19219;44.500;11.188;2023-04-24T07:30:26;9.65;;;7.57;;
32864;SDS011;19219;44.500;11.188;2023-04-24T07:32:54;14.30;;;7.25;;
32864;SDS011;19219;44.500;11.188;2023-04-24T07:35:20;8.38;;;5.68;;
32864;SDS011;19219;44.500;11.188;2023-04-24T07:37:46;9.55;;;7.30;;
32864;SDS011;19219;44.500;11.188;2023-04-24T07:40:13;9.38;;;6.30;;
32864;SDS011;19219;44.500;11.188;2023-04-24T07:42:38;15.30;;;7.00;;
32864;SDS011;19219;44.500;11.188;2023-04-24T07:45:04;9.80;;;6.75;;
32864;SDS011;19219;44.500;11.188;2023-04-24T07:47:31;10.52;;;6.00;;
32864;SDS011;19219;44.500;11.188;2023-04-24T07:49:57;12.90;;;7.38;;
32864;SDS011;19219;44.500;11.188;2023-04-24T07:52:24;15.93;;;9.57;;
32864;SDS011;19219;44.500;11.188;2023-04-24T07:54:50;6.97;;;6.28;;
32864;SDS011;19219;44.500;11.188;2023-04-24T07:57:17;7.20;;;4.80;;
32864;SDS011;19219;44.500;11.188;2023-04-24T07:59:43;6.72;;;5.40;;
32864;SDS011;19219;44.500;11.188;2023-04-24T08:02:09;8.82;;;6.40;;
32864;SDS011;19219;44.500;11.188;2023-04-24T08:04:35;6.88;;;4.82;;
32864;SDS011;19219;44.500;11.188;2023-04-24T08:07:00;6.57;;;4.05;;
32864;SDS011;19219;44.500;11.188;2023-04-24T08:09:26;6.50;;;4.90;;
32864;SDS011;19219;44.500;11.188;2023-04-24T08:11:51;7.88;;;4.78;;
32864;SDS011;19219;44.500;11.188;2023-04-24T08:14:18;13.02;;;4.50;;
32864;SDS011;19219;44.500;11.188;2023-04-24T08:16:43;40.92;;;24.60;;
32864;SDS011;19219;44.500;11.188;2023-04-24T08:19:09;14.23;;;9.50;;
32864;SDS011;19219;44.500;11.188;2023-04-24T08:21:35;8.43;;;4.97;;
32864;SDS011;19219;44.500;11.188;2023-04-24T08:24:01;8.15;;;4.32;;
32864;SDS011;19219;44.500;11.188;2023-04-24T08:26:30;7.85;;;4.40;;
32864;SDS011;19219;44.500;11.188;2023-04-24T08:28:56;6.70;;;3.85;;
32864;SDS011;19219;44.500;11.188;2023-04-24T08:31:22;6.65;;;4.65;;
32864;SDS011;19219;44.500;11.188;2023-04-24T08:33:49;7.88;;;4.43;;
32864;SDS011;19219;44.500;11.188;2023-04-24T08:36:15;11.73;;;5.60;;
32864;SDS011;19219;44.500;11.188;2023-04-24T08:38:41;10.93;;;7.70;;
32864;SDS011;19219;44.500;11.188;2023-04-24T08:41:07;15.63;;;12.18;;
32864;SDS011;19219;44.500;11.188;2023-04-24T08:43:35;12.15;;;7.03;;
32864;SDS011;19219;44.500;11.188;2023-04-24T08:46:03;10.70;;;7.65;;
32864;SDS011;19219;44.500;11.188;2023-04-24T08:48:29;12.32;;;8.57;;
32864;SDS011;19219;44.500;11.188;2023-04-24T08:50:56;11.27;;;8.07;;
32864;SDS011;19219;44.500;11.188;2023-04-24T08:53:22;16.92;;;10.10;;
32864;SDS011;19219;44.500;11.188;2023-04-24T08:55:50;17.75;;;10.85;;
32864;SDS011;19219;44.500;11.188;2023-04-24T08:58:16;18.90;;;11.63;;
32864;SDS011;19219;44.500;11.188;2023-04-24T09:00:43;14.05;;;12.05;;
32864;SDS011;19219;44.500;11.188;2023-04-24T09:03:13;15.82;;;11.20;;
32864;SDS011;19219;44.500;11.188;2023-04-24T09:05:40;18.25;;;12.02;;
32864;SDS011;19219;44.500;11.188;2023-04-24T09:08:10;9.38;;;7.40;;
32864;SDS011;19219;44.500;11.188;2023-04-24T09:10:38;11.60;;;8.07;;
32864;SDS011;19219;44.500;11.188;2023-04-24T09:13:05;13.05;;;7.47;;
32864;SDS011;19219;44.500;11.188;2023-04-24T09:15:31;11.35;;;6.63;;
32864;SDS011;19219;44.500;11.188;2023-04-24T09:17:57;12.02;;;7.18;;
32864;SDS011;19219;44.500;11.188;2023-04-24T09:20:23;11.10;;;8.10;;
32864;SDS011;19219;44.500;11.188;2023-04-24T09:22:48;12.60;;;8.27;;
32864;SDS011;19219;44.500;11.188;2023-04-24T09:25:20;11.05;;;8.75;;
32864;SDS011;19219;44.500;11.188;2023-04-24T09:27:46;12.50;;;8.05;;
32864;SDS011;19219;44.500;11.188;2023-04-24T09:30:12;10.93;;;5.75;;
32864;SDS011;19219;44.500;11.188;2023-04-24T09:32:39;10.45;;;6.80;;
32864;SDS011;19219;44.500;11.188;2023-04-24T09:37:35;9.57;;;5.65;;
32864;SDS011;19219;44.500;11.188;2023-04-24T09:40:08;9.07;;;7.03;;
32864;SDS011;19219;44.500;11.188;2023-04-24T09:42:38;11.75;;;7.63;;
32864;SDS011;19219;44.500;11.188;2023-04-24T09:45:13;7.70;;;6.82;;
32864;SDS011;19219;44.500;11.188;2023-04-24T09:47:41;12.98;;;8.80;;
32864;SDS011;19219;44.500;11.188;2023-04-24T09:50:10;14.57;;;8.68;;
32864;SDS011;19219;44.500;11.188;2023-04-24T09:52:41;7.70;;;5.43;;
32864;SDS011;19219;44.500;11.188;2023-04-24T09:55:16;7.65;;;4.50;;
32864;SDS011;19219;44.500;11.188;2023-04-24T09:57:57;8.85;;;5.10;;
32864;SDS011;19219;44.500;11.188;2023-04-24T10:00:25;8.05;;;5.53;;
32864;SDS011;19219;44.500;11.188;2023-04-24T10:03:03;5.35;;;3.95;;
32864;SDS011;19219;44.500;11.188;2023-04-24T10:05:31;5.38;;;3.90;;
32864;SDS011;19219;44.500;11.188;2023-04-24T10:08:05;7.75;;;3.97;;
32864;SDS011;19219;44.500;11.188;2023-04-24T10:10:37;5.18;;;4.00;;
32864;SDS011;19219;44.500;11.188;2023-04-24T10:13:05;8.65;;;4.70;;
32864;SDS011;19219;44.500;11.188;2023-04-24T10:15:32;5.93;;;4.15;;
32864;SDS011;19219;44.500;11.188;2023-04-24T10:17:58;5.65;;;4.55;;
32864;SDS011;19219;44.500;11.188;2023-04-24T10:20:25;5.43;;;4.68;;
32864;SDS011;19219;44.500;11.188;2023-04-24T10:22:56;7.43;;;4.72;;
32864;SDS011;19219;44.500;11.188;2023-04-24T10:25:24;9.63;;;5.78;;
32864;SDS011;19219;44.500;11.188;2023-04-24T10:27:52;7.50;;;4.70;;
32864;SDS011;19219;44.500;11.188;2023-04-24T10:30:18;6.50;;;4.50;;
32864;SDS011;19219;44.500;11.188;2023-04-24T10:32:45;7.70;;;5.40;;
32864;SDS011;19219;44.500;11.188;2023-04-24T10:35:11;15.05;;;11.20;;
32864;SDS011;19219;44.500;11.188;2023-04-24T10:37:40;6.53;;;5.18;;
32864;SDS011;19219;44.500;11.188;2023-04-24T10:40:27;7.10;;;5.32;;
32864;SDS011;19219;44.500;11.188;2023-04-24T10:42:59;5.40;;;4.50;;
32864;SDS011;19219;44.500;11.188;2023-04-24T10:45:27;9.55;;;4.38;;
32864;SDS011;19219;44.500;11.188;2023-04-24T10:47:53;4.95;;;4.47;;
32864;SDS011;19219;44.500;11.188;2023-04-24T10:50:19;9.52;;;4.68;;
32864;SDS011;19219;44.500;11.188;2023-04-24T10:52:48;8.43;;;4.68;;
32864;SDS011;19219;44.500;11.188;2023-04-24T10:55:16;8.23;;;3.92;;
32864;SDS011;19219;44.500;11.188;2023-04-24T10:58:02;5.80;;;4.68;;
32864;SDS011;19219;44.500;11.188;2023-04-24T11:00:29;9.50;;;4.50;;
32864;SDS011;19219;44.500;11.188;2023-04-24T11:02:54;6.60;;;3.85;;
32864;SDS011;19219;44.500;11.188;2023-04-24T11:05:21;8.80;;;7.88;;
32864;SDS011;19219;44.500;11.188;2023-04-24T11:10:54;5.00;;;3.92;;
32864;SDS011;19219;44.500;11.188;2023-04-24T11:13:25;5.18;;;4.50;;
32864;SDS011;19219;44.500;11.188;2023-04-24T11:18:51;4.35;;;3.60;;
32864;SDS011;19219;44.500;11.188;2023-04-24T11:21:25;5.72;;;3.35;;
32864;SDS011;19219;44.500;11.188;2023-04-24T11:23:51;5.35;;;3.53;;
32864;SDS011;19219;44.500;11.188;2023-04-24T11:26:20;5.03;;;3.90;;
32864;SDS011;19219;44.500;11.188;2023-04-24T11:28:50;12.05;;;4.20;;
32864;SDS011;19219;44.500;11.188;2023-04-24T11:34:08;6.60;;;4.40;;
32864;SDS011;19219;44.500;11.188;2023-04-24T11:36:34;17.08;;;7.32;;
32864;SDS011;19219;44.500;11.188;2023-04-24T11:39:00;6.68;;;4.53;;
32864;SDS011;19219;44.500;11.188;2023-04-24T11:41:27;8.70;;;4.68;;
32864;SDS011;19219;44.500;11.188;2023-04-24T11:43:53;5.32;;;3.60;;
32864;SDS011;19219;44.500;11.188;2023-04-24T11:46:20;5.60;;;4.10;;
32864;SDS011;19219;44.500;11.188;2023-04-24T11:48:46;13.10;;;9.80;;
32864;SDS011;19219;44.500;11.188;2023-04-24T11:51:13;6.95;;;4.95;;
32864;SDS011;19219;44.500;11.188;2023-04-24T11:53:39;6.28;;;4.63;;
32864;SDS011;19219;44.500;11.188;2023-04-24T11:56:06;7.68;;;3.97;;
32864;SDS011;19219;44.500;11.188;2023-04-24T11:58:38;5.43;;;3.58;;
32864;SDS011;19219;44.500;11.188;2023-04-24T12:01:04;6.20;;;4.75;;
32864;SDS011;19219;44.500;11.188;2023-04-24T12:03:30;5.95;;;4.43;;
32864;SDS011;19219;44.500;11.188;2023-04-24T12:06:09;4.38;;;3.40;;
32864;SDS011;19219;44.500;11.188;2023-04-24T12:08:36;5.37;;;3.50;;
32864;SDS011;19219;44.500;11.188;2023-04-24T12:11:03;9.85;;;4.30;;
32864;SDS011;19219;44.500;11.188;2023-04-24T12:13:32;5.90;;;4.00;;
32864;SDS011;19219;44.500;11.188;2023-04-24T12:15:59;9.48;;;5.80;;
32864;SDS011;19219;44.500;11.188;2023-04-24T12:18:26;7.63;;;4.43;;
32864;SDS011;19219;44.500;11.188;2023-04-24T12:20:52;4.38;;;3.72;;
32864;SDS011;19219;44.500;11.188;2023-04-24T12:23:36;4.90;;;3.78;;
32864;SDS011;19219;44.500;11.188;2023-04-24T12:26:05;6.93;;;4.35;;
32864;SDS011;19219;44.500;11.188;2023-04-24T12:28:37;9.90;;;5.75;;
32864;SDS011;19219;44.500;11.188;2023-04-24T12:31:04;5.85;;;4.18;;
32864;SDS011;19219;44.500;11.188;2023-04-24T12:33:35;3.45;;;2.90;;
32864;SDS011;19219;44.500;11.188;2023-04-24T12:36:01;5.68;;;4.18;;
32864;SDS011;19219;44.500;11.188;2023-04-24T12:38:27;5.80;;;3.90;;
32864;SDS011;19219;44.500;11.188;2023-04-24T12:41:06;4.80;;;3.92;;
32864;SDS011;19219;44.500;11.188;2023-04-24T12:43:33;5.93;;;3.92;;
32864;SDS011;19219;44.500;11.188;2023-04-24T12:45:59;5.82;;;3.90;;
32864;SDS011;19219;44.500;11.188;2023-04-24T12:48:28;8.48;;;4.63;;
32864;SDS011;19219;44.500;11.188;2023-04-24T12:50:54;9.27;;;5.60;;
32864;SDS011;19219;44.500;11.188;2023-04-24T12:53:22;9.13;;;5.25;;
32864;SDS011;19219;44.500;11.188;2023-04-24T12:55:47;4.90;;;4.10;;
32864;SDS011;19219;44.500;11.188;2023-04-24T12:58:18;5.85;;;4.82;;
32864;SDS011;19219;44.500;11.188;2023-04-24T13:00:47;7.43;;;5.30;;
32864;SDS011;19219;44.500;11.188;2023-04-24T13:03:13;4.65;;;3.38;;
32864;SDS011;19219;44.500;11.188;2023-04-24T13:05:39;11.63;;;3.90;;
32864;SDS011;19219;44.500;11.188;2023-04-24T13:08:05;4.53;;;2.92;;
32864;SDS011;19219;44.500;11.188;2023-04-24T13:10:31;5.68;;;3.22;;
32864;SDS011;19219;44.500;11.188;2023-04-24T13:12:56;5.18;;;3.50;;
32864;SDS011;19219;44.500;11.188;2023-04-24T13:15:22;3.65;;;3.15;;
32864;SDS011;19219;44.500;11.188;2023-04-24T13:17:48;4.53;;;4.07;;
32864;SDS011;19219;44.500;11.188;2023-04-24T13:20:14;5.45;;;3.95;;
32864;SDS011;19219;44.500;11.188;2023-04-24T13:22:39;5.45;;;4.13;;
32864;SDS011;19219;44.500;11.188;2023-04-24T13:25:05;8.52;;;5.10;;
32864;SDS011;19219;44.500;11.188;2023-04-24T13:27:32;4.32;;;3.90;;
32864;SDS011;19219;44.500;11.188;2023-04-24T13:29:58;5.18;;;4.68;;
32864;SDS011;19219;44.500;11.188;2023-04-24T13:32:23;6.10;;;4.65;;
32864;SDS011;19219;44.500;11.188;2023-04-24T13:34:50;9.23;;;5.97;;
32864;SDS011;19219;44.500;11.188;2023-04-24T13:37:16;7.93;;;4.30;;
32864;SDS011;19219;44.500;11.188;2023-04-24T13:39:41;8.43;;;4.20;;
32864;SDS011;19219;44.500;11.188;2023-04-24T13:42:07;5.72;;;3.83;;
32864;SDS011;19219;44.500;11.188;2023-04-24T13:44:33;4.20;;;3.55;;
32864;SDS011;19219;44.500;11.188;2023-04-24T13:46:59;6.00;;;3.80;;
32864;SDS011;19219;44.500;11.188;2023-04-24T13:49:25;5.75;;;2.70;;
32864;SDS011;19219;44.500;11.188;2023-04-24T13:51:52;3.63;;;2.97;;
32864;SDS011;19219;44.500;11.188;2023-04-24T13:54:18;3.78;;;3.00;;
32864;SDS011;19219;44.500;11.188;2023-04-24T13:56:44;4.65;;;3.33;;
32864;SDS011;19219;44.500;11.188;2023-04-24T13:59:11;3.45;;;2.88;;
32864;SDS011;19219;44.500;11.188;2023-04-24T14:01:37;9.05;;;6.18;;
32864;SDS011;19219;44.500;11.188;2023-04-24T14:04:03;3.80;;;3.38;;
32864;SDS011;19219;44.500;11.188;2023-04-24T14:06:28;3.35;;;3.10;;
32864;SDS011;19219;44.500;11.188;2023-04-24T14:08:54;4.15;;;3.03;;
32864;SDS011;19219;44.500;11.188;2023-04-24T14:11:20;3.22;;;2.92;;
32864;SDS011;19219;44.500;11.188;2023-04-24T14:13:46;6.30;;;3.28;;
32864;SDS011;19219;44.500;11.188;2023-04-24T14:16:12;5.30;;;3.33;;
32864;SDS011;19219;44.500;11.188;2023-04-24T14:18:37;4.28;;;3.25;;
32864;SDS011;19219;44.500;11.188;2023-04-24T14:21:03;5.05;;;2.97;;
32864;SDS011;19219;44.500;11.188;2023-04-24T14:23:29;3.75;;;2.60;;
32864;SDS011;19219;44.500;11.188;2023-04-24T14:25:55;3.55;;;3.25;;
32864;SDS011;19219;44.500;11.188;2023-04-24T14:28:21;4.55;;;3.30;;
32864;SDS011;19219;44.500;11.188;2023-04-24T14:30:47;4.60;;;3.65;;
32864;SDS011;19219;44.500;11.188;2023-04-24T14:33:13;3.72;;;3.42;;
32864;SDS011;19219;44.500;11.188;2023-04-24T14:35:40;6.95;;;4.00;;
32864;SDS011;19219;44.500;11.188;2023-04-24T14:38:07;5.32;;;4.18;;